sensor_id;sensor_type;location;lat;lon;timestamp;temperature;humidity
6956;DHT22;50345;51.136;16.886;2022-12-18T00:01:19;-2.70;99.90
6956;DHT22;50345;51.136;16.886;2022-12-18T00:03:45;-2.70;99.90
6956;DHT22;50345;51.136;16.886;2022-12-18T00:06:11;-2.70;99.90
6956;DHT22;50345;51.136;16.886;2022-12-18T00:08:37;-2.70;99.90
6956;DHT22;50345;51.136;16.886;2022-12-18T00:11:10;-2.70;99.90
6956;DHT22;50345;51.136;16.886;2022-12-18T00:13:35;-2.70;99.90
6956;DHT22;50345;51.136;16.886;2022-12-18T00:16:24;-2.70;99.90
6956;DHT22;50345;51.136;16.886;2022-12-18T00:18:51;-2.70;99.90
6956;DHT22;50345;51.136;16.886;2022-12-18T00:21:17;-2.70;99.90
6956;DHT22;50345;51.136;16.886;2022-12-18T00:23:44;-2.70;99.90
6956;DHT22;50345;51.136;16.886;2022-12-18T00:26:19;-2.70;99.90
6956;DHT22;50345;51.136;16.886;2022-12-18T00:28:46;-2.70;99.90
6956;DHT22;50345;51.136;16.886;2022-12-18T00:31:17;-2.70;99.90
6956;DHT22;50345;51.136;16.886;2022-12-18T00:33:43;-2.60;99.90
6956;DHT22;50345;51.136;16.886;2022-12-18T00:36:11;-2.60;99.90
6956;DHT22;50345;51.136;16.886;2022-12-18T00:38:38;-2.60;99.90
6956;DHT22;50345;51.136;16.886;2022-12-18T00:41:06;-2.60;99.90
6956;DHT22;50345;51.136;16.886;2022-12-18T00:43:32;-2.60;99.90
6956;DHT22;50345;51.136;16.886;2022-12-18T00:45:57;-2.60;99.90
6956;DHT22;50345;51.136;16.886;2022-12-18T00:48:23;-2.50;99.90
6956;DHT22;50345;51.136;16.886;2022-12-18T00:50:49;-2.60;99.90
6956;DHT22;50345;51.136;16.886;2022-12-18T00:53:15;-2.60;99.90
6956;DHT22;50345;51.136;16.886;2022-12-18T00:55:41;-2.60;99.90
6956;DHT22;50345;51.136;16.886;2022-12-18T00:58:07;-2.60;99.90
6956;DHT22;50345;51.136;16.886;2022-12-18T01:00:34;-2.60;99.90
6956;DHT22;50345;51.136;16.886;2022-12-18T01:02:59;-2.60;99.90
6956;DHT22;50345;51.136;16.886;2022-12-18T01:05:25;-2.60;99.90
6956;DHT22;50345;51.136;16.886;2022-12-18T01:07:50;-2.60;99.90
6956;DHT22;50345;51.136;16.886;2022-12-18T01:10:17;-2.60;99.90
6956;DHT22;50345;51.136;16.886;2022-12-18T01:12:42;-2.60;99.90
6956;DHT22;50345;51.136;16.886;2022-12-18T01:15:10;-2.60;99.90
6956;DHT22;50345;51.136;16.886;2022-12-18T01:17:36;-2.60;99.90
6956;DHT22;50345;51.136;16.886;2022-12-18T01:20:02;-2.50;99.90
6956;DHT22;50345;51.136;16.886;2022-12-18T01:22:28;-2.50;99.90
6956;DHT22;50345;51.136;16.886;2022-12-18T01:24:54;-2.50;99.90
6956;DHT22;50345;51.136;16.886;2022-12-18T01:27:19;-2.50;99.90
6956;DHT22;50345;51.136;16.886;2022-12-18T01:29:45;-2.50;99.90
6956;DHT22;50345;51.136;16.886;2022-12-18T01:32:11;-2.50;99.90
6956;DHT22;50345;51.136;16.886;2022-12-18T01:34:37;-2.50;99.90
6956;DHT22;50345;51.136;16.886;2022-12-18T01:37:05;-2.40;99.90
6956;DHT22;50345;51.136;16.886;2022-12-18T01:39:31;-2.40;99.90
6956;DHT22;50345;51.136;16.886;2022-12-18T01:42:31;-2.40;99.90
6956;DHT22;50345;51.136;16.886;2022-12-18T01:49:54;-2.40;99.90
6956;DHT22;50345;51.136;16.886;2022-12-18T01:52:21;-2.40;99.90
6956;DHT22;50345;51.136;16.886;2022-12-18T01:54:49;-2.40;99.90
6956;DHT22;50345;51.136;16.886;2022-12-18T01:57:15;-2.40;99.90
6956;DHT22;50345;51.136;16.886;2022-12-18T01:59:43;-2.40;99.90
6956;DHT22;50345;51.136;16.886;2022-12-18T02:02:11;-2.30;99.90
6956;DHT22;50345;51.136;16.886;2022-12-18T02:04:37;-2.30;99.90
6956;DHT22;50345;51.136;16.886;2022-12-18T02:10:27;-2.30;99.90
6956;DHT22;50345;51.136;16.886;2022-12-18T02:13:12;-2.30;99.90
6956;DHT22;50345;51.136;16.886;2022-12-18T02:16:06;-2.30;99.90
6956;DHT22;50345;51.136;16.886;2022-12-18T02:18:35;-2.30;99.90
6956;DHT22;50345;51.136;16.886;2022-12-18T02:21:36;-2.30;99.90
6956;DHT22;50345;51.136;16.886;2022-12-18T02:27:03;-2.30;99.90
6956;DHT22;50345;51.136;16.886;2022-12-18T02:29:35;-2.30;99.90
6956;DHT22;50345;51.136;16.886;2022-12-18T02:32:06;-2.30;99.90
6956;DHT22;50345;51.136;16.886;2022-12-18T02:34:34;-2.30;99.90
6956;DHT22;50345;51.136;16.886;2022-12-18T02:37:04;-2.30;99.90
6956;DHT22;50345;51.136;16.886;2022-12-18T02:39:32;-2.30;99.90
6956;DHT22;50345;51.136;16.886;2022-12-18T02:41:59;-2.30;99.90
6956;DHT22;50345;51.136;16.886;2022-12-18T02:44:27;-2.30;99.90
6956;DHT22;50345;51.136;16.886;2022-12-18T02:46:53;-2.20;99.90
6956;DHT22;50345;51.136;16.886;2022-12-18T02:52:21;-2.20;99.90
6956;DHT22;50345;51.136;16.886;2022-12-18T02:57:37;-2.20;99.90
6956;DHT22;50345;51.136;16.886;2022-12-18T03:05:44;-2.20;99.90
6956;DHT22;50345;51.136;16.886;2022-12-18T03:08:20;-2.30;99.90
6956;DHT22;50345;51.136;16.886;2022-12-18T03:11:07;-2.30;99.90
6956;DHT22;50345;51.136;16.886;2022-12-18T03:13:46;-2.30;99.90
6956;DHT22;50345;51.136;16.886;2022-12-18T03:16:18;-2.30;99.90
6956;DHT22;50345;51.136;16.886;2022-12-18T03:18:52;-2.30;99.90
6956;DHT22;50345;51.136;16.886;2022-12-18T03:21:23;-2.30;99.90
6956;DHT22;50345;51.136;16.886;2022-12-18T03:23:52;-2.30;99.90
6956;DHT22;50345;51.136;16.886;2022-12-18T03:26:22;-2.30;99.90
6956;DHT22;50345;51.136;16.886;2022-12-18T03:29:04;-2.30;99.90
6956;DHT22;50345;51.136;16.886;2022-12-18T03:31:36;-2.30;99.90
6956;DHT22;50345;51.136;16.886;2022-12-18T03:34:05;-2.40;99.90
6956;DHT22;50345;51.136;16.886;2022-12-18T03:36:34;-2.50;99.90
6956;DHT22;50345;51.136;16.886;2022-12-18T03:39:00;-2.50;99.90
6956;DHT22;50345;51.136;16.886;2022-12-18T03:41:40;-2.50;99.90
6956;DHT22;50345;51.136;16.886;2022-12-18T03:44:11;-2.50;99.90
6956;DHT22;50345;51.136;16.886;2022-12-18T03:49:34;-2.50;99.90
6956;DHT22;50345;51.136;16.886;2022-12-18T03:52:12;-2.50;99.90
6956;DHT22;50345;51.136;16.886;2022-12-18T03:54:40;-2.50;99.90
6956;DHT22;50345;51.136;16.886;2022-12-18T03:57:11;-2.50;99.90
6956;DHT22;50345;51.136;16.886;2022-12-18T03:59:39;-2.50;99.90
6956;DHT22;50345;51.136;16.886;2022-12-18T04:02:06;-2.50;99.90
6956;DHT22;50345;51.136;16.886;2022-12-18T04:04:34;-2.50;99.90
6956;DHT22;50345;51.136;16.886;2022-12-18T04:07:01;-2.50;99.90
6956;DHT22;50345;51.136;16.886;2022-12-18T04:09:27;-2.70;99.90
6956;DHT22;50345;51.136;16.886;2022-12-18T04:11:53;-2.70;99.90
6956;DHT22;50345;51.136;16.886;2022-12-18T04:14:19;-2.70;99.90
6956;DHT22;50345;51.136;16.886;2022-12-18T04:16:44;-2.70;99.90
6956;DHT22;50345;51.136;16.886;2022-12-18T04:19:10;-2.70;99.90
6956;DHT22;50345;51.136;16.886;2022-12-18T04:21:35;-2.70;99.90
6956;DHT22;50345;51.136;16.886;2022-12-18T04:24:01;-2.70;99.90
6956;DHT22;50345;51.136;16.886;2022-12-18T04:26:26;-2.70;99.90
6956;DHT22;50345;51.136;16.886;2022-12-18T04:28:52;-2.70;99.90
6956;DHT22;50345;51.136;16.886;2022-12-18T04:31:18;-2.70;99.90
6956;DHT22;50345;51.136;16.886;2022-12-18T04:33:43;-2.80;99.90
6956;DHT22;50345;51.136;16.886;2022-12-18T04:36:09;-2.80;99.90
6956;DHT22;50345;51.136;16.886;2022-12-18T04:38:34;-2.80;99.90
6956;DHT22;50345;51.136;16.886;2022-12-18T04:41:00;-2.80;99.90
6956;DHT22;50345;51.136;16.886;2022-12-18T04:43:25;-2.90;99.90
6956;DHT22;50345;51.136;16.886;2022-12-18T04:45:51;-2.90;99.90
6956;DHT22;50345;51.136;16.886;2022-12-18T04:48:16;-2.90;99.90
6956;DHT22;50345;51.136;16.886;2022-12-18T04:50:42;-2.90;99.90
6956;DHT22;50345;51.136;16.886;2022-12-18T04:53:08;-2.90;99.90
6956;DHT22;50345;51.136;16.886;2022-12-18T04:55:33;-2.90;99.90
6956;DHT22;50345;51.136;16.886;2022-12-18T04:57:59;-2.90;99.90
6956;DHT22;50345;51.136;16.886;2022-12-18T05:00:24;-2.90;99.90
6956;DHT22;50345;51.136;16.886;2022-12-18T05:02:50;-2.90;99.90
6956;DHT22;50345;51.136;16.886;2022-12-18T05:05:16;-2.80;99.90
6956;DHT22;50345;51.136;16.886;2022-12-18T05:07:41;-2.80;99.90
6956;DHT22;50345;51.136;16.886;2022-12-18T05:10:07;-2.80;99.90
6956;DHT22;50345;51.136;16.886;2022-12-18T05:12:33;-2.80;99.90
6956;DHT22;50345;51.136;16.886;2022-12-18T05:14:59;-2.80;99.90
6956;DHT22;50345;51.136;16.886;2022-12-18T05:17:24;-2.80;99.90
6956;DHT22;50345;51.136;16.886;2022-12-18T05:19:50;-2.80;99.90
6956;DHT22;50345;51.136;16.886;2022-12-18T05:22:15;-2.80;99.90
6956;DHT22;50345;51.136;16.886;2022-12-18T05:24:41;-2.90;99.90
6956;DHT22;50345;51.136;16.886;2022-12-18T05:27:06;-2.90;99.90
6956;DHT22;50345;51.136;16.886;2022-12-18T05:29:32;-3.00;99.90
6956;DHT22;50345;51.136;16.886;2022-12-18T05:31:57;-3.00;99.90
6956;DHT22;50345;51.136;16.886;2022-12-18T05:34:23;-3.10;99.90
6956;DHT22;50345;51.136;16.886;2022-12-18T05:36:48;-3.10;99.90
6956;DHT22;50345;51.136;16.886;2022-12-18T05:39:14;-3.10;99.90
6956;DHT22;50345;51.136;16.886;2022-12-18T05:41:40;-3.10;99.90
6956;DHT22;50345;51.136;16.886;2022-12-18T05:44:05;-3.10;99.90
6956;DHT22;50345;51.136;16.886;2022-12-18T05:46:31;-3.00;99.90
6956;DHT22;50345;51.136;16.886;2022-12-18T05:48:59;-3.10;99.90
6956;DHT22;50345;51.136;16.886;2022-12-18T05:51:25;-3.20;99.90
6956;DHT22;50345;51.136;16.886;2022-12-18T05:53:51;-3.20;99.90
6956;DHT22;50345;51.136;16.886;2022-12-18T05:56:19;-3.20;99.90
6956;DHT22;50345;51.136;16.886;2022-12-18T05:58:45;-3.20;99.90
6956;DHT22;50345;51.136;16.886;2022-12-18T06:01:17;-3.20;99.90
6956;DHT22;50345;51.136;16.886;2022-12-18T06:03:44;-3.30;99.90
6956;DHT22;50345;51.136;16.886;2022-12-18T06:06:17;-3.30;99.90
6956;DHT22;50345;51.136;16.886;2022-12-18T06:08:43;-3.30;99.90
6956;DHT22;50345;51.136;16.886;2022-12-18T06:11:09;-3.30;99.90
6956;DHT22;50345;51.136;16.886;2022-12-18T06:13:35;-3.20;99.90
6956;DHT22;50345;51.136;16.886;2022-12-18T06:16:05;-3.20;99.90
6956;DHT22;50345;51.136;16.886;2022-12-18T06:18:31;-3.20;99.90
6956;DHT22;50345;51.136;16.886;2022-12-18T06:20:58;-3.20;99.90
6956;DHT22;50345;51.136;16.886;2022-12-18T06:23:24;-3.20;99.90
6956;DHT22;50345;51.136;16.886;2022-12-18T06:25:50;-3.10;99.90
6956;DHT22;50345;51.136;16.886;2022-12-18T06:28:16;-3.20;99.90
6956;DHT22;50345;51.136;16.886;2022-12-18T06:30:46;-3.10;99.90
6956;DHT22;50345;51.136;16.886;2022-12-18T06:33:11;-3.10;99.90
6956;DHT22;50345;51.136;16.886;2022-12-18T06:35:37;-3.10;99.90
6956;DHT22;50345;51.136;16.886;2022-12-18T06:38:03;-3.10;99.90
6956;DHT22;50345;51.136;16.886;2022-12-18T06:40:29;-3.10;99.90
6956;DHT22;50345;51.136;16.886;2022-12-18T06:42:54;-3.00;99.90
6956;DHT22;50345;51.136;16.886;2022-12-18T06:45:20;-3.00;99.90
6956;DHT22;50345;51.136;16.886;2022-12-18T06:47:45;-3.00;99.90
6956;DHT22;50345;51.136;16.886;2022-12-18T06:50:12;-3.00;99.90
6956;DHT22;50345;51.136;16.886;2022-12-18T06:52:38;-3.00;99.90
6956;DHT22;50345;51.136;16.886;2022-12-18T06:55:05;-3.00;99.90
6956;DHT22;50345;51.136;16.886;2022-12-18T06:57:31;-3.00;99.90
6956;DHT22;50345;51.136;16.886;2022-12-18T06:59:56;-3.00;99.90
6956;DHT22;50345;51.136;16.886;2022-12-18T07:02:22;-3.00;99.90
6956;DHT22;50345;51.136;16.886;2022-12-18T07:04:50;-3.00;99.90
6956;DHT22;50345;51.136;16.886;2022-12-18T07:07:15;-3.00;99.90
6956;DHT22;50345;51.136;16.886;2022-12-18T07:09:41;-3.00;99.90
6956;DHT22;50345;51.136;16.886;2022-12-18T07:12:07;-3.00;99.90
6956;DHT22;50345;51.136;16.886;2022-12-18T07:14:33;-3.00;99.90
6956;DHT22;50345;51.136;16.886;2022-12-18T07:16:59;-3.00;99.90
6956;DHT22;50345;51.136;16.886;2022-12-18T07:19:24;-3.00;99.90
6956;DHT22;50345;51.136;16.886;2022-12-18T07:21:50;-3.10;99.90
6956;DHT22;50345;51.136;16.886;2022-12-18T07:24:16;-3.00;99.90
6956;DHT22;50345;51.136;16.886;2022-12-18T07:26:42;-3.00;99.90
6956;DHT22;50345;51.136;16.886;2022-12-18T07:29:08;-3.10;99.90
6956;DHT22;50345;51.136;16.886;2022-12-18T07:31:33;-3.10;99.90
6956;DHT22;50345;51.136;16.886;2022-12-18T07:33:59;-3.10;99.90
6956;DHT22;50345;51.136;16.886;2022-12-18T07:36:25;-3.20;99.90
6956;DHT22;50345;51.136;16.886;2022-12-18T07:38:51;-3.20;99.90
6956;DHT22;50345;51.136;16.886;2022-12-18T07:41:18;-3.30;99.90
6956;DHT22;50345;51.136;16.886;2022-12-18T07:43:44;-3.30;99.90
6956;DHT22;50345;51.136;16.886;2022-12-18T07:46:11;-3.20;99.90
6956;DHT22;50345;51.136;16.886;2022-12-18T07:48:39;-3.20;99.90
6956;DHT22;50345;51.136;16.886;2022-12-18T07:51:06;-3.30;99.90
6956;DHT22;50345;51.136;16.886;2022-12-18T07:53:33;-3.30;99.90
6956;DHT22;50345;51.136;16.886;2022-12-18T07:56:01;-3.30;99.90
6956;DHT22;50345;51.136;16.886;2022-12-18T07:58:28;-3.30;99.90
6956;DHT22;50345;51.136;16.886;2022-12-18T08:00:53;-3.30;99.90
6956;DHT22;50345;51.136;16.886;2022-12-18T08:03:19;-3.20;99.90
6956;DHT22;50345;51.136;16.886;2022-12-18T08:05:44;-3.20;99.90
6956;DHT22;50345;51.136;16.886;2022-12-18T08:08:10;-3.10;99.90
6956;DHT22;50345;51.136;16.886;2022-12-18T08:10:37;-3.10;99.90
6956;DHT22;50345;51.136;16.886;2022-12-18T08:13:03;-3.10;99.90
6956;DHT22;50345;51.136;16.886;2022-12-18T08:15:28;-3.10;99.90
6956;DHT22;50345;51.136;16.886;2022-12-18T08:17:56;-3.10;99.90
6956;DHT22;50345;51.136;16.886;2022-12-18T08:20:22;-3.10;99.90
6956;DHT22;50345;51.136;16.886;2022-12-18T08:22:47;-3.10;99.90
6956;DHT22;50345;51.136;16.886;2022-12-18T08:25:13;-3.10;99.90
6956;DHT22;50345;51.136;16.886;2022-12-18T08:27:39;-3.20;99.90
6956;DHT22;50345;51.136;16.886;2022-12-18T08:30:05;-3.20;99.90
6956;DHT22;50345;51.136;16.886;2022-12-18T08:32:31;-3.20;99.90
6956;DHT22;50345;51.136;16.886;2022-12-18T08:34:58;-3.10;99.90
6956;DHT22;50345;51.136;16.886;2022-12-18T08:37:24;-3.10;99.90
6956;DHT22;50345;51.136;16.886;2022-12-18T08:39:49;-3.00;99.90
6956;DHT22;50345;51.136;16.886;2022-12-18T08:42:15;-3.00;99.90
6956;DHT22;50345;51.136;16.886;2022-12-18T08:44:59;-3.00;99.90
6956;DHT22;50345;51.136;16.886;2022-12-18T08:47:24;-3.00;99.90
6956;DHT22;50345;51.136;16.886;2022-12-18T08:49:51;-2.90;99.90
6956;DHT22;50345;51.136;16.886;2022-12-18T08:52:17;-2.70;99.90
6956;DHT22;50345;51.136;16.886;2022-12-18T08:54:42;-2.60;99.90
6956;DHT22;50345;51.136;16.886;2022-12-18T08:57:08;-2.50;99.90
6956;DHT22;50345;51.136;16.886;2022-12-18T08:59:33;-2.30;99.90
6956;DHT22;50345;51.136;16.886;2022-12-18T09:01:59;-2.20;99.90
6956;DHT22;50345;51.136;16.886;2022-12-18T09:04:24;-2.20;99.90
6956;DHT22;50345;51.136;16.886;2022-12-18T09:06:50;-2.10;99.90
6956;DHT22;50345;51.136;16.886;2022-12-18T09:09:15;-2.20;99.90
6956;DHT22;50345;51.136;16.886;2022-12-18T09:11:41;-2.20;99.90
6956;DHT22;50345;51.136;16.886;2022-12-18T09:14:07;-2.20;99.90
6956;DHT22;50345;51.136;16.886;2022-12-18T09:16:33;-2.20;99.90
6956;DHT22;50345;51.136;16.886;2022-12-18T09:19:01;-2.10;99.90
6956;DHT22;50345;51.136;16.886;2022-12-18T09:21:29;-2.00;99.90
6956;DHT22;50345;51.136;16.886;2022-12-18T09:23:55;-2.00;99.90
6956;DHT22;50345;51.136;16.886;2022-12-18T09:26:22;-1.90;99.90
6956;DHT22;50345;51.136;16.886;2022-12-18T09:28:48;-1.90;99.90
6956;DHT22;50345;51.136;16.886;2022-12-18T09:31:14;-1.80;99.90
6956;DHT22;50345;51.136;16.886;2022-12-18T09:33:40;-1.90;99.90
6956;DHT22;50345;51.136;16.886;2022-12-18T09:36:08;-2.00;99.90
6956;DHT22;50345;51.136;16.886;2022-12-18T09:38:34;-2.00;99.90
6956;DHT22;50345;51.136;16.886;2022-12-18T09:41:06;-2.00;99.90
6956;DHT22;50345;51.136;16.886;2022-12-18T09:43:48;-2.00;99.90
6956;DHT22;50345;51.136;16.886;2022-12-18T09:46:43;-1.90;99.90
6956;DHT22;50345;51.136;16.886;2022-12-18T09:49:14;-1.90;99.90
6956;DHT22;50345;51.136;16.886;2022-12-18T09:51:54;-1.90;99.90
6956;DHT22;50345;51.136;16.886;2022-12-18T09:54:26;-1.90;99.90
6956;DHT22;50345;51.136;16.886;2022-12-18T09:56:55;-1.80;99.90
6956;DHT22;50345;51.136;16.886;2022-12-18T09:59:29;-1.80;99.90
6956;DHT22;50345;51.136;16.886;2022-12-18T10:01:56;-2.00;99.90
6956;DHT22;50345;51.136;16.886;2022-12-18T10:04:22;-2.10;99.90
6956;DHT22;50345;51.136;16.886;2022-12-18T10:10:05;-2.10;99.90
6956;DHT22;50345;51.136;16.886;2022-12-18T10:15:36;-2.00;99.90
6956;DHT22;50345;51.136;16.886;2022-12-18T10:21:10;-2.00;99.90
6956;DHT22;50345;51.136;16.886;2022-12-18T10:23:48;-2.00;99.90
6956;DHT22;50345;51.136;16.886;2022-12-18T10:26:17;-2.10;99.90
6956;DHT22;50345;51.136;16.886;2022-12-18T10:28:43;-2.10;99.90
6956;DHT22;50345;51.136;16.886;2022-12-18T10:31:23;-2.10;99.90
6956;DHT22;50345;51.136;16.886;2022-12-18T10:33:49;-2.20;99.90
6956;DHT22;50345;51.136;16.886;2022-12-18T10:36:15;-2.20;99.90
6956;DHT22;50345;51.136;16.886;2022-12-18T10:38:41;-2.30;99.90
6956;DHT22;50345;51.136;16.886;2022-12-18T10:41:23;-2.30;99.90
6956;DHT22;50345;51.136;16.886;2022-12-18T10:46:39;-2.40;99.90
6956;DHT22;50345;51.136;16.886;2022-12-18T10:49:07;-2.40;99.90
6956;DHT22;50345;51.136;16.886;2022-12-18T10:51:43;-2.40;99.90
6956;DHT22;50345;51.136;16.886;2022-12-18T10:54:21;-2.50;99.90
6956;DHT22;50345;51.136;16.886;2022-12-18T10:56:47;-2.50;99.90
6956;DHT22;50345;51.136;16.886;2022-12-18T10:59:15;-2.50;99.90
6956;DHT22;50345;51.136;16.886;2022-12-18T11:01:57;-2.50;99.90
6956;DHT22;50345;51.136;16.886;2022-12-18T11:04:31;-2.50;99.90
6956;DHT22;50345;51.136;16.886;2022-12-18T11:09:32;-2.50;99.90
6956;DHT22;50345;51.136;16.886;2022-12-18T11:12:00;-2.50;99.90
6956;DHT22;50345;51.136;16.886;2022-12-18T11:14:34;-2.40;99.90
6956;DHT22;50345;51.136;16.886;2022-12-18T11:17:00;-2.40;99.90
6956;DHT22;50345;51.136;16.886;2022-12-18T11:19:29;-2.40;99.90
6956;DHT22;50345;51.136;16.886;2022-12-18T11:21:56;-2.30;99.90
6956;DHT22;50345;51.136;16.886;2022-12-18T11:24:34;-2.30;99.90
6956;DHT22;50345;51.136;16.886;2022-12-18T11:27:04;-2.30;99.90
6956;DHT22;50345;51.136;16.886;2022-12-18T11:29:36;-2.10;99.90
6956;DHT22;50345;51.136;16.886;2022-12-18T11:34:48;-1.90;99.90
6956;DHT22;50345;51.136;16.886;2022-12-18T11:37:17;-1.90;99.90
6956;DHT22;50345;51.136;16.886;2022-12-18T11:39:57;-1.90;99.90
6956;DHT22;50345;51.136;16.886;2022-12-18T11:42:41;-2.00;99.90
6956;DHT22;50345;51.136;16.886;2022-12-18T11:50:24;-2.00;99.90
6956;DHT22;50345;51.136;16.886;2022-12-18T11:52:50;-2.00;99.90
6956;DHT22;50345;51.136;16.886;2022-12-18T11:57:54;-2.10;99.90
6956;DHT22;50345;51.136;16.886;2022-12-18T12:00:22;-2.10;99.90
6956;DHT22;50345;51.136;16.886;2022-12-18T12:11:43;-2.10;99.90
6956;DHT22;50345;51.136;16.886;2022-12-18T12:17:04;-2.20;99.90
6956;DHT22;50345;51.136;16.886;2022-12-18T12:19:44;-2.20;99.90
6956;DHT22;50345;51.136;16.886;2022-12-18T12:22:24;-2.10;99.90
6956;DHT22;50345;51.136;16.886;2022-12-18T12:27:41;-2.20;99.90
6956;DHT22;50345;51.136;16.886;2022-12-18T12:30:20;-2.20;99.90
6956;DHT22;50345;51.136;16.886;2022-12-18T12:33:26;-2.10;99.90
6956;DHT22;50345;51.136;16.886;2022-12-18T12:38:35;-1.80;99.90
6956;DHT22;50345;51.136;16.886;2022-12-18T12:41:08;-1.70;99.90
6956;DHT22;50345;51.136;16.886;2022-12-18T12:43:57;-1.70;99.90
6956;DHT22;50345;51.136;16.886;2022-12-18T12:46:24;-1.90;99.90
6956;DHT22;50345;51.136;16.886;2022-12-18T12:48:55;-2.00;99.90
6956;DHT22;50345;51.136;16.886;2022-12-18T12:51:25;-2.10;99.90
6956;DHT22;50345;51.136;16.886;2022-12-18T12:53:52;-2.20;99.90
6956;DHT22;50345;51.136;16.886;2022-12-18T12:56:20;-2.20;99.90
6956;DHT22;50345;51.136;16.886;2022-12-18T13:04:50;-2.20;99.90
6956;DHT22;50345;51.136;16.886;2022-12-18T13:13:12;-2.10;99.90
6956;DHT22;50345;51.136;16.886;2022-12-18T13:16:03;-2.10;99.90
6956;DHT22;50345;51.136;16.886;2022-12-18T13:18:29;-2.10;99.90
6956;DHT22;50345;51.136;16.886;2022-12-18T13:26:37;-2.40;99.90
6956;DHT22;50345;51.136;16.886;2022-12-18T13:34:23;-2.50;99.90
6956;DHT22;50345;51.136;16.886;2022-12-18T13:36:49;-2.60;99.90
6956;DHT22;50345;51.136;16.886;2022-12-18T13:41:48;-2.70;99.90
6956;DHT22;50345;51.136;16.886;2022-12-18T13:44:37;-2.70;99.90
6956;DHT22;50345;51.136;16.886;2022-12-18T13:47:25;-2.60;99.90
6956;DHT22;50345;51.136;16.886;2022-12-18T13:49:51;-2.50;99.90
6956;DHT22;50345;51.136;16.886;2022-12-18T13:52:22;-2.50;99.90
6956;DHT22;50345;51.136;16.886;2022-12-18T13:54:55;-2.50;99.90
6956;DHT22;50345;51.136;16.886;2022-12-18T13:59:55;-2.70;99.90
6956;DHT22;50345;51.136;16.886;2022-12-18T14:02:23;-2.90;99.90
6956;DHT22;50345;51.136;16.886;2022-12-18T14:04:50;-3.00;99.90
6956;DHT22;50345;51.136;16.886;2022-12-18T14:07:26;-3.00;99.90
6956;DHT22;50345;51.136;16.886;2022-12-18T14:09:58;-3.00;99.90
6956;DHT22;50345;51.136;16.886;2022-12-18T14:12:26;-3.00;99.90
6956;DHT22;50345;51.136;16.886;2022-12-18T14:15:43;-3.10;99.90
6956;DHT22;50345;51.136;16.886;2022-12-18T14:20:44;-3.20;99.90
6956;DHT22;50345;51.136;16.886;2022-12-18T14:23:39;-3.10;99.90
6956;DHT22;50345;51.136;16.886;2022-12-18T14:28:50;-3.20;99.90
6956;DHT22;50345;51.136;16.886;2022-12-18T14:31:26;-3.30;99.90
6956;DHT22;50345;51.136;16.886;2022-12-18T14:33:52;-3.30;99.90
6956;DHT22;50345;51.136;16.886;2022-12-18T14:36:21;-3.40;99.90
6956;DHT22;50345;51.136;16.886;2022-12-18T14:38:49;-3.40;99.90
6956;DHT22;50345;51.136;16.886;2022-12-18T14:41:17;-3.40;99.90
6956;DHT22;50345;51.136;16.886;2022-12-18T14:43:45;-3.40;99.90
6956;DHT22;50345;51.136;16.886;2022-12-18T14:46:38;-3.40;99.90
6956;DHT22;50345;51.136;16.886;2022-12-18T14:52:20;-3.50;99.90
6956;DHT22;50345;51.136;16.886;2022-12-18T14:54:48;-3.50;99.90
6956;DHT22;50345;51.136;16.886;2022-12-18T14:57:23;-3.60;99.90
6956;DHT22;50345;51.136;16.886;2022-12-18T14:59:50;-3.70;99.90
6956;DHT22;50345;51.136;16.886;2022-12-18T15:05:00;-3.70;99.90
6956;DHT22;50345;51.136;16.886;2022-12-18T15:07:26;-3.70;99.90
6956;DHT22;50345;51.136;16.886;2022-12-18T15:10:14;-3.70;99.90
6956;DHT22;50345;51.136;16.886;2022-12-18T15:20:57;-3.80;99.90
6956;DHT22;50345;51.136;16.886;2022-12-18T15:26:15;-3.90;99.90
6956;DHT22;50345;51.136;16.886;2022-12-18T15:28:47;-4.00;99.90
6956;DHT22;50345;51.136;16.886;2022-12-18T15:33:41;-4.00;99.90
6956;DHT22;50345;51.136;16.886;2022-12-18T15:36:13;-4.00;99.90
6956;DHT22;50345;51.136;16.886;2022-12-18T15:38:39;-4.00;99.90
6956;DHT22;50345;51.136;16.886;2022-12-18T15:41:04;-4.00;99.90
6956;DHT22;50345;51.136;16.886;2022-12-18T15:43:30;-4.10;99.90
6956;DHT22;50345;51.136;16.886;2022-12-18T15:46:03;-4.10;99.90
6956;DHT22;50345;51.136;16.886;2022-12-18T15:48:29;-4.20;99.90
6956;DHT22;50345;51.136;16.886;2022-12-18T15:50:56;-4.20;99.90
6956;DHT22;50345;51.136;16.886;2022-12-18T15:53:24;-4.20;99.90
6956;DHT22;50345;51.136;16.886;2022-12-18T15:55:50;-4.30;99.90
6956;DHT22;50345;51.136;16.886;2022-12-18T15:58:34;-4.30;99.90
6956;DHT22;50345;51.136;16.886;2022-12-18T16:01:00;-4.30;99.90
6956;DHT22;50345;51.136;16.886;2022-12-18T16:03:26;-4.30;99.90
6956;DHT22;50345;51.136;16.886;2022-12-18T16:05:52;-4.30;99.90
6956;DHT22;50345;51.136;16.886;2022-12-18T16:08:18;-4.40;99.90
6956;DHT22;50345;51.136;16.886;2022-12-18T16:10:43;-4.40;99.90
6956;DHT22;50345;51.136;16.886;2022-12-18T16:13:15;-4.50;99.90
6956;DHT22;50345;51.136;16.886;2022-12-18T16:15:42;-4.50;99.90
6956;DHT22;50345;51.136;16.886;2022-12-18T16:18:07;-4.60;99.90
6956;DHT22;50345;51.136;16.886;2022-12-18T16:20:33;-4.70;99.90
6956;DHT22;50345;51.136;16.886;2022-12-18T16:22:58;-4.70;99.90
6956;DHT22;50345;51.136;16.886;2022-12-18T16:25:26;-4.80;99.90
6956;DHT22;50345;51.136;16.886;2022-12-18T16:27:53;-4.90;99.90
6956;DHT22;50345;51.136;16.886;2022-12-18T16:30:24;-4.90;99.90
6956;DHT22;50345;51.136;16.886;2022-12-18T16:32:51;-5.00;99.90
6956;DHT22;50345;51.136;16.886;2022-12-18T16:35:17;-5.00;99.90
6956;DHT22;50345;51.136;16.886;2022-12-18T16:37:43;-5.00;99.90
6956;DHT22;50345;51.136;16.886;2022-12-18T16:40:11;-5.10;99.90
6956;DHT22;50345;51.136;16.886;2022-12-18T16:42:38;-5.10;99.90
6956;DHT22;50345;51.136;16.886;2022-12-18T16:45:06;-5.10;99.90
6956;DHT22;50345;51.136;16.886;2022-12-18T16:47:32;-5.10;99.90
6956;DHT22;50345;51.136;16.886;2022-12-18T16:49:58;-5.10;99.90
6956;DHT22;50345;51.136;16.886;2022-12-18T16:52:23;-5.10;99.90
6956;DHT22;50345;51.136;16.886;2022-12-18T16:54:49;-5.10;99.90
6956;DHT22;50345;51.136;16.886;2022-12-18T16:57:16;-5.10;99.90
6956;DHT22;50345;51.136;16.886;2022-12-18T16:59:44;-5.10;99.90
6956;DHT22;50345;51.136;16.886;2022-12-18T17:02:21;-5.10;99.90
6956;DHT22;50345;51.136;16.886;2022-12-18T17:04:47;-5.10;99.90
6956;DHT22;50345;51.136;16.886;2022-12-18T17:07:13;-5.10;99.90
6956;DHT22;50345;51.136;16.886;2022-12-18T17:09:39;-5.20;99.90
6956;DHT22;50345;51.136;16.886;2022-12-18T17:12:05;-5.20;99.90
6956;DHT22;50345;51.136;16.886;2022-12-18T17:14:31;-5.20;99.90
6956;DHT22;50345;51.136;16.886;2022-12-18T17:16:58;-5.20;99.90
6956;DHT22;50345;51.136;16.886;2022-12-18T17:19:25;-5.20;99.90
6956;DHT22;50345;51.136;16.886;2022-12-18T17:21:51;-5.30;99.90
6956;DHT22;50345;51.136;16.886;2022-12-18T17:24:18;-5.40;99.90
6956;DHT22;50345;51.136;16.886;2022-12-18T17:26:44;-5.50;99.90
6956;DHT22;50345;51.136;16.886;2022-12-18T17:31:40;-5.70;99.90
6956;DHT22;50345;51.136;16.886;2022-12-18T17:34:06;-5.70;99.90
6956;DHT22;50345;51.136;16.886;2022-12-18T17:36:32;-5.80;99.90
6956;DHT22;50345;51.136;16.886;2022-12-18T17:38:59;-5.80;99.90
6956;DHT22;50345;51.136;16.886;2022-12-18T17:41:26;-5.80;99.90
6956;DHT22;50345;51.136;16.886;2022-12-18T17:43:53;-5.90;99.90